Time;durP1;ratioP1;P1;durP2;ratioP2;P2;SDS_P1;SDS_P2;PMS_P1;PMS_P2;Temp;Humidity;BMP_temperature;BMP_pressure;BME280_temperature;BME280_humidity;BME280_pressure;Samples;Min_cycle;Max_cycle;Signal;HPM_P1;HPM_P2
2023/07/04 00:01:13;;;;;;;3.03;2.10;;;;;;;18.94;63.76;97000.38;6034177;23;20411;-82
2023/07/04 00:03:40;;;;;;;2.42;1.88;;;;;;;18.84;63.98;96994.25;6022497;23;20220;-82
2023/07/04 00:06:07;;;;;;;2.85;2.13;;;;;;;18.72;63.72;96991.38;6053733;23;20336;-81
2023/07/04 00:08:36;;;;;;;2.45;2.25;;;;;;;18.65;63.87;96991.03;5989183;23;20327;-82
2023/07/04 00:11:03;;;;;;;2.50;2.10;;;;;;;18.67;63.77;96991.50;6020428;23;20367;-81
2023/07/04 00:13:30;;;;;;;3.80;2.25;;;;;;;18.59;64.06;96979.03;6014429;23;20242;-81
2023/07/04 00:15:56;;;;;;;3.50;1.92;;;;;;;18.63;63.79;96990.56;6003930;23;20303;-82
2023/07/04 00:18:24;;;;;;;2.40;1.98;;;;;;;18.65;64.38;96985.75;6038676;23;20152;-82
2023/07/04 00:20:56;;;;;;;2.97;1.92;;;;;;;18.68;64.04;96977.25;6059383;23;20111;-82
2023/07/04 00:23:29;;;;;;;3.47;2.20;;;;;;;18.64;63.88;96984.94;6035078;23;20029;-83
2023/07/04 00:25:55;;;;;;;2.70;1.85;;;;;;;18.56;63.59;96990.97;6031521;23;20225;-82
2023/07/04 00:28:22;;;;;;;2.28;2.05;;;;;;;18.48;64.17;96987.19;6032142;23;20186;-82
2023/07/04 00:30:50;;;;;;;2.85;2.40;;;;;;;18.34;64.12;96973.28;6071989;23;20127;-82
2023/07/04 00:33:16;;;;;;;4.20;2.35;;;;;;;18.39;64.32;96990.84;6026181;23;20163;-82
2023/07/04 00:35:42;;;;;;;2.45;2.03;;;;;;;18.38;63.77;96992.69;6018887;23;20138;-81
2023/07/04 00:38:08;;;;;;;2.17;1.90;;;;;;;18.34;64.19;96995.16;6060661;23;20010;-81
2023/07/04 00:40:34;;;;;;;3.25;2.50;;;;;;;18.29;64.35;96995.25;6057580;23;20084;-82
2023/07/04 00:43:05;;;;;;;2.67;2.40;;;;;;;18.32;64.27;96996.53;6034306;23;20176;-83
2023/07/04 00:45:35;;;;;;;2.45;1.98;;;;;;;18.26;64.30;96982.69;6021817;23;20365;-83
2023/07/04 00:48:03;;;;;;;2.35;2.15;;;;;;;18.32;64.38;96997.31;6069454;23;20230;-82
2023/07/04 00:50:33;;;;;;;3.38;2.28;;;;;;;18.24;64.97;96994.63;6015688;23;20025;-84
2023/07/04 00:53:02;;;;;;;3.88;2.30;;;;;;;18.30;65.12;96996.84;6071007;23;20339;-82
2023/07/04 00:55:28;;;;;;;3.13;2.67;;;;;;;18.36;65.22;97008.03;6037316;23;20309;-82
2023/07/04 00:57:55;;;;;;;3.38;2.53;;;;;;;18.15;65.16;96984.00;6037817;23;20024;-82
2023/07/04 01:00:23;;;;;;;3.03;2.45;;;;;;;18.18;65.13;96991.31;6013864;23;20151;-82
2023/07/04 01:03:04;;;;;;;5.13;2.50;;;;;;;18.24;65.02;96984.84;6022105;23;20415;-80
2023/07/04 01:05:37;;;;;;;3.13;2.55;;;;;;;18.25;64.83;96996.94;6004098;23;20674;-80
2023/07/04 01:08:06;;;;;;;2.67;2.45;;;;;;;18.05;64.93;96977.09;6014528;23;20348;-80
2023/07/04 01:10:42;;;;;;;4.63;3.10;;;;;;;18.28;65.12;97000.84;6036563;23;20354;-80
2023/07/04 01:13:27;;;;;;;3.38;2.63;;;;;;;18.32;64.47;97004.44;6005520;23;20614;-80
2023/07/04 01:15:52;;;;;;;2.60;2.33;;;;;;;18.11;64.69;96991.72;6004052;23;20088;-80
2023/07/04 01:18:18;;;;;;;4.43;2.80;;;;;;;18.15;65.11;97013.75;6029310;23;20333;-80
2023/07/04 01:20:43;;;;;;;3.28;2.63;;;;;;;18.12;65.29;97014.34;6037089;23;20164;-80
2023/07/04 01:23:32;;;;;;;2.92;2.40;;;;;;;18.25;64.84;97007.50;6014540;23;20227;-80
2023/07/04 01:26:19;;;;;;;4.55;3.10;;;;;;;18.28;64.54;97012.19;6013203;23;20307;-80
2023/07/04 01:28:44;;;;;;;3.58;2.78;;;;;;;18.09;65.38;97014.16;6029860;23;20340;-80
2023/07/04 01:31:10;;;;;;;3.53;2.50;;;;;;;18.08;64.95;97016.03;6028578;23;20318;-80
2023/07/04 01:33:40;;;;;;;3.35;2.85;;;;;;;18.05;64.76;97016.63;5987962;23;20477;-80
2023/07/04 01:36:09;;;;;;;2.83;2.10;;;;;;;18.05;64.87;97013.22;6013374;23;20221;-80
2023/07/04 01:38:35;;;;;;;4.45;3.05;;;;;;;17.99;65.20;97014.38;6016246;23;20392;-80
2023/07/04 01:41:01;;;;;;;3.35;2.30;;;;;;;18.03;65.14;97025.91;6065526;23;20163;-80
2023/07/04 01:43:26;;;;;;;3.42;2.95;;;;;;;17.96;65.10;97021.03;6016595;23;20522;-80
2023/07/04 01:45:52;;;;;;;3.38;2.80;;;;;;;17.94;65.33;97023.16;6040493;23;20011;-80
2023/07/04 01:48:18;;;;;;;4.65;2.72;;;;;;;17.95;65.29;97030.78;6041710;23;20255;-80
2023/07/04 01:50:43;;;;;;;3.88;2.60;;;;;;;17.96;65.56;97026.31;6007428;23;20383;-80
2023/07/04 01:53:09;;;;;;;3.00;2.63;;;;;;;17.92;65.04;97036.66;5981547;23;20046;-80
2023/07/04 01:55:34;;;;;;;2.95;2.33;;;;;;;17.94;65.50;97044.25;5943566;23;20325;-80
2023/07/04 01:58:00;;;;;;;6.35;3.20;;;;;;;17.90;65.14;97038.00;6030635;23;20345;-80
2023/07/04 02:00:26;;;;;;;4.15;2.70;;;;;;;17.88;65.79;97042.81;6030338;23;20199;-79
2023/07/04 02:02:52;;;;;;;5.28;2.88;;;;;;;18.00;65.89;97055.47;5981595;23;20379;-80
2023/07/04 02:05:19;;;;;;;4.05;2.75;;;;;;;17.93;65.70;97047.97;6007201;23;20475;-80
2023/07/04 02:07:46;;;;;;;3.40;3.10;;;;;;;17.98;65.86;97050.50;5982357;23;20051;-80
2023/07/04 02:10:11;;;;;;;4.15;3.13;;;;;;;17.93;66.02;97042.69;6005390;23;20229;-80
2023/07/04 02:12:37;;;;;;;4.82;2.92;;;;;;;17.92;66.38;97052.47;6005231;23;20149;-79
2023/07/04 02:15:02;;;;;;;3.55;2.58;;;;;;;17.94;66.38;97054.78;6006503;23;20218;-80
2023/07/04 02:17:28;;;;;;;3.15;2.60;;;;;;;17.96;66.27;97052.66;6030840;23;20329;-80
2023/07/04 02:19:54;;;;;;;3.80;2.45;;;;;;;17.92;66.23;97046.41;6039228;23;20545;-80
2023/07/04 02:22:20;;;;;;;3.72;2.90;;;;;;;17.91;66.10;97055.38;6039583;23;20222;-80
2023/07/04 02:24:46;;;;;;;4.00;3.00;;;;;;;17.88;65.99;97050.69;5917584;23;20338;-80
2023/07/04 02:27:11;;;;;;;4.18;2.75;;;;;;;17.89;65.97;97057.50;6038846;23;20038;-80
2023/07/04 02:29:37;;;;;;;3.70;2.67;;;;;;;17.90;65.97;97064.34;5982519;23;20015;-80
2023/07/04 02:32:02;;;;;;;3.05;2.42;;;;;;;17.90;65.98;97053.81;5979806;23;20317;-80
2023/07/04 02:34:28;;;;;;;3.22;2.92;;;;;;;17.83;66.13;97053.41;6039438;23;20492;-80
2023/07/04 02:36:53;;;;;;;3.15;2.80;;;;;;;17.87;65.79;97054.41;5942516;23;20423;-80
2023/07/04 02:39:19;;;;;;;3.28;2.65;;;;;;;17.88;66.06;97059.38;6006249;23;20625;-80
2023/07/04 02:41:44;;;;;;;4.35;2.83;;;;;;;17.77;65.60;97045.59;6039150;23;20345;-79
2023/07/04 02:44:10;;;;;;;4.20;2.70;;;;;;;17.77;65.73;97042.97;5981465;23;20369;-80
2023/07/04 02:46:35;;;;;;;4.10;2.53;;;;;;;17.79;65.88;97054.00;5981440;23;20554;-80
2023/07/04 02:49:02;;;;;;;4.03;3.15;;;;;;;17.78;65.71;97052.41;5981676;23;20547;-80
2023/07/04 02:51:28;;;;;;;4.05;3.00;;;;;;;17.76;65.57;97059.06;5982076;23;20330;-80
2023/07/04 02:53:53;;;;;;;5.32;3.10;;;;;;;17.67;65.22;97051.06;6040252;23;20509;-80
2023/07/04 02:56:19;;;;;;;3.95;2.83;;;;;;;17.66;65.62;97057.41;6005672;23;20400;-80
2023/07/04 02:58:44;;;;;;;3.63;2.90;;;;;;;17.57;65.00;97051.28;5981308;23;20355;-80
2023/07/04 03:01:09;;;;;;;5.18;3.08;;;;;;;17.58;65.77;97058.88;5981522;23;20601;-80
2023/07/04 03:03:35;;;;;;;3.85;2.85;;;;;;;17.57;65.50;97056.53;6013785;23;20191;-80
2023/07/04 03:06:00;;;;;;;3.78;2.90;;;;;;;17.52;65.09;97048.72;6006462;23;20292;-80
2023/07/04 03:08:26;;;;;;;8.02;3.00;;;;;;;17.49;65.24;97052.72;6039588;23;20072;-80
2023/07/04 03:10:51;;;;;;;3.40;3.10;;;;;;;17.34;64.96;97045.91;6005336;23;20263;-80
2023/07/04 03:13:17;;;;;;;3.60;3.10;;;;;;;17.45;65.34;97061.50;5981146;23;20487;-80
2023/07/04 03:15:43;;;;;;;5.20;3.25;;;;;;;17.34;65.32;97064.31;6039584;23;20333;-80
2023/07/04 03:18:08;;;;;;;3.92;3.50;;;;;;;17.39;65.60;97061.59;5981288;23;20014;-80
2023/07/04 03:20:34;;;;;;;5.25;3.58;;;;;;;17.35;65.50;97060.59;6005916;23;20183;-80
2023/07/04 03:22:59;;;;;;;4.00;3.55;;;;;;;17.35;65.77;97068.50;6038892;23;20165;-80
2023/07/04 03:25:25;;;;;;;5.53;3.70;;;;;;;17.38;65.64;97072.41;6030188;23;20353;-80
2023/07/04 03:27:50;;;;;;;4.63;3.38;;;;;;;17.35;65.51;97065.88;6005742;23;20575;-80
2023/07/04 03:30:16;;;;;;;3.38;3.08;;;;;;;17.33;65.57;97069.88;6038897;23;20468;-80
2023/07/04 03:32:41;;;;;;;4.05;3.17;;;;;;;17.36;65.45;97075.34;6004958;23;20446;-80
2023/07/04 03:35:08;;;;;;;4.10;3.70;;;;;;;17.32;65.61;97061.19;6039493;23;20517;-80
2023/07/04 03:37:34;;;;;;;3.95;3.47;;;;;;;17.34;65.27;97072.22;6014985;23;20187;-80
2023/07/04 03:40:00;;;;;;;4.47;3.58;;;;;;;17.32;65.11;97071.69;6038881;23;20153;-80
2023/07/04 03:42:26;;;;;;;5.88;3.67;;;;;;;17.34;65.16;97074.84;6015051;23;20390;-80
2023/07/04 03:44:52;;;;;;;3.90;3.35;;;;;;;17.25;65.12;97063.41;5911336;23;20259;-79
2023/07/04 03:47:18;;;;;;;5.10;4.00;;;;;;;17.26;65.45;97074.75;6040141;23;20460;-80
2023/07/04 03:49:44;;;;;;;4.43;3.72;;;;;;;17.25;65.65;97075.78;6006628;23;20172;-80
2023/07/04 03:52:10;;;;;;;8.68;4.43;;;;;;;17.20;66.19;97068.75;6040519;23;20306;-80
2023/07/04 03:54:35;;;;;;;6.07;4.00;;;;;;;17.15;66.16;97067.03;5982311;23;20153;-80
2023/07/04 03:57:01;;;;;;;5.40;4.07;;;;;;;17.21;65.98;97072.97;6016330;23;20022;-79
2023/07/04 03:59:26;;;;;;;6.55;4.63;;;;;;;17.28;66.66;97080.50;5983388;23;20520;-80
2023/07/04 04:01:52;;;;;;;7.15;5.30;;;;;;;17.31;66.43;97074.66;6036367;23;20390;-80
2023/07/04 04:04:19;;;;;;;6.18;4.70;;;;;;;17.36;66.46;97080.59;5982324;23;20493;-80
2023/07/04 04:06:48;;;;;;;5.35;4.43;;;;;;;17.41;66.39;97080.50;5982695;23;20302;-80
2023/07/04 04:09:15;;;;;;;5.38;4.78;;;;;;;17.45;66.89;97079.94;6016257;23;20077;-79
2023/07/04 04:11:40;;;;;;;5.40;4.45;;;;;;;17.44;66.81;97079.13;6016104;23;20172;-79
2023/07/04 04:14:06;;;;;;;5.10;4.25;;;;;;;17.48;66.59;97084.59;6016126;23;20372;-80
2023/07/04 04:16:32;;;;;;;7.45;5.05;;;;;;;17.46;66.59;97082.28;5982467;23;20412;-79
2023/07/04 04:18:58;;;;;;;6.13;5.00;;;;;;;17.55;67.27;97083.16;6030940;23;20314;-80
2023/07/04 04:21:24;;;;;;;7.70;4.90;;;;;;;17.54;67.10;97086.84;5981765;23;20129;-79
2023/07/04 04:23:52;;;;;;;6.10;4.82;;;;;;;17.63;67.19;97097.47;5982755;23;20409;-80
2023/07/04 04:26:19;;;;;;;5.75;4.20;;;;;;;17.66;67.09;97085.59;6040500;23;20317;-79
2023/07/04 04:28:44;;;;;;;6.80;4.60;;;;;;;17.71;67.13;97096.03;6015710;23;20193;-79
2023/07/04 04:31:11;;;;;;;6.68;4.57;;;;;;;17.75;67.03;97092.53;6039427;23;20153;-80
2023/07/04 04:33:37;;;;;;;7.35;4.85;;;;;;;17.85;66.88;97093.41;5942652;23;20176;-80
2023/07/04 04:36:03;;;;;;;5.82;4.78;;;;;;;17.90;67.62;97102.00;6016588;23;20253;-80
2023/07/04 04:38:29;;;;;;;7.22;4.90;;;;;;;17.88;67.46;97103.38;6031546;23;20348;-80
2023/07/04 04:41:02;;;;;;;6.95;5.43;;;;;;;18.00;67.43;97100.25;5982689;23;20263;-79
2023/07/04 04:43:32;;;;;;;8.30;5.70;;;;;;;18.02;67.19;97101.50;6014533;23;20255;-80
2023/07/04 04:46:02;;;;;;;9.80;6.45;;;;;;;18.17;66.53;97112.84;5980794;23;20446;-80
2023/07/04 04:48:35;;;;;;;7.25;4.63;;;;;;;18.20;66.30;97106.94;6006490;23;20328;-80
2023/07/04 04:51:08;;;;;;;6.78;4.85;;;;;;;18.21;66.44;97100.63;6007775;23;20016;-79
2023/07/04 04:53:42;;;;;;;8.38;5.80;;;;;;;18.31;66.29;97116.22;5981769;23;20384;-80
2023/07/04 04:56:08;;;;;;;6.95;5.38;;;;;;;18.24;66.67;97118.47;5908859;23;20316;-80
2023/07/04 04:58:35;;;;;;;6.30;5.15;;;;;;;18.29;66.45;97118.38;6040435;23;20172;-80
2023/07/04 05:01:15;;;;;;;7.10;5.32;;;;;;;18.42;65.63;97120.22;6004685;23;20387;-80
2023/07/04 05:03:42;;;;;;;7.57;5.63;;;;;;;18.41;66.06;97118.63;5907776;23;20414;-80
2023/07/04 05:06:07;;;;;;;6.63;4.82;;;;;;;18.43;66.37;97119.13;6038826;23;20358;-80
2023/07/04 05:08:36;;;;;;;6.68;5.00;;;;;;;18.55;65.94;97118.59;6039574;23;20535;-80
2023/07/04 05:11:07;;;;;;;7.35;5.38;;;;;;;18.64;65.64;97118.66;6038620;23;20175;-80
2023/07/04 05:13:37;;;;;;;9.68;5.10;;;;;;;18.73;65.09;97127.44;5980036;23;20216;-81
2023/07/04 05:16:05;;;;;;;8.93;5.85;;;;;;;18.64;65.61;97129.22;6039719;23;20191;-80
2023/07/04 05:18:32;;;;;;;8.00;5.13;;;;;;;18.67;65.41;97118.09;6039190;23;20271;-80
2023/07/04 05:21:05;;;;;;;7.20;5.38;;;;;;;18.91;64.76;97125.75;5909016;23;20333;-80
2023/07/04 05:23:32;;;;;;;6.32;5.00;;;;;;;18.90;64.66;97126.81;6015129;23;20326;-80
2023/07/04 05:26:03;;;;;;;6.68;5.22;;;;;;;18.96;63.58;97120.34;6040398;23;20610;-81
2023/07/04 05:28:29;;;;;;;6.05;5.28;;;;;;;19.11;63.24;97123.69;6039812;23;20668;-80
2023/07/04 05:31:07;;;;;;;5.78;4.60;;;;;;;19.21;63.31;97121.59;5980898;23;20502;-82
2023/07/04 05:33:33;;;;;;;8.88;4.72;;;;;;;19.20;63.71;97114.75;6039672;23;20191;-81
2023/07/04 05:36:29;;;;;;;6.10;4.60;;;;;;;19.50;62.10;97120.38;6041602;23;20180;-81
2023/07/04 05:38:55;;;;;;;;;;;;;;;19.58;62.09;97127.53;5993688;23;20336;-81
2023/07/04 05:41:23;;;;;;;6.05;4.22;;;;;;;19.43;62.56;97127.94;6016648;23;20550;-81
2023/07/04 05:43:49;;;;;;;6.03;4.40;;;;;;;19.51;62.15;97129.84;6020512;23;20011;-80
2023/07/04 05:46:16;;;;;;;5.30;4.05;;;;;;;19.72;61.22;97126.66;6053817;23;20742;-81
2023/07/04 05:48:42;;;;;;;6.03;4.55;;;;;;;19.86;60.49;97130.03;5927858;23;20133;-81
2023/07/04 05:51:11;;;;;;;5.13;3.50;;;;;;;19.84;60.81;97121.59;6021680;23;20049;-81
2023/07/04 05:53:38;;;;;;;4.90;3.67;;;;;;;19.78;60.15;97117.56;6045170;23;20014;-80
2023/07/04 05:56:15;;;;;;;5.57;4.00;;;;;;;19.97;58.59;97118.06;6021641;23;20200;-81
2023/07/04 05:58:44;;;;;;;5.80;3.92;;;;;;;20.02;58.21;97138.31;5995599;23;20223;-81
2023/07/04 06:01:16;;;;;;;6.25;3.67;;;;;;;20.01;58.34;97134.09;6030224;23;20097;-81
2023/07/04 06:03:43;;;;;;;7.07;4.10;;;;;;;20.00;57.52;97125.41;6018995;23;20030;-81
2023/07/04 06:06:31;;;;;;;6.75;3.80;;;;;;;20.17;58.05;97143.19;6019447;23;20054;-81
2023/07/04 06:09:02;;;;;;;7.40;3.63;;;;;;;20.31;57.00;97144.91;6044135;23;20003;-81
2023/07/04 06:11:31;;;;;;;8.32;4.35;;;;;;;20.33;57.60;97126.88;6018500;23;20010;-80
2023/07/04 06:13:57;;;;;;;6.00;4.00;;;;;;;20.44;57.17;97140.56;6044020;23;20003;-80
2023/07/04 06:16:23;;;;;;;4.60;3.70;;;;;;;20.62;56.92;97144.84;5995299;23;20014;-80
2023/07/04 06:18:49;;;;;;;5.45;3.70;;;;;;;20.81;55.63;97146.41;6018143;23;20022;-81
2023/07/04 06:21:18;;;;;;;5.30;3.90;;;;;;;20.94;54.58;97140.19;6017256;23;20186;-81
2023/07/04 06:23:44;;;;;;;5.97;4.10;;;;;;;21.01;54.52;97135.19;6050318;23;20150;-80
2023/07/04 06:26:11;;;;;;;5.50;4.00;;;;;;;21.20;53.23;97139.34;6043157;23;20003;-80
2023/07/04 06:28:38;;;;;;;5.78;3.47;;;;;;;21.25;53.56;97139.19;6050117;23;20007;-80
2023/07/04 06:31:11;;;;;;;5.18;3.45;;;;;;;21.39;53.16;97134.50;6016244;23;20003;-80
2023/07/04 06:33:37;;;;;;;6.75;3.90;;;;;;;21.51;53.51;97137.28;5992735;23;20069;-80
2023/07/04 06:36:02;;;;;;;5.05;3.28;;;;;;;21.57;51.44;97140.53;6026939;23;20282;-80
2023/07/04 06:38:28;;;;;;;5.35;3.80;;;;;;;21.68;50.98;97133.03;6041169;23;20589;-81
2023/07/04 06:41:06;;;;;;;5.45;3.83;;;;;;;21.84;51.30;97133.28;5953861;23;20027;-80
2023/07/04 06:43:32;;;;;;;5.85;3.65;;;;;;;21.94;49.26;97140.88;6017408;23;20033;-81
2023/07/04 06:45:58;;;;;;;6.88;3.30;;;;;;;21.97;48.21;97132.28;5991544;23;20008;-80
2023/07/04 06:48:25;;;;;;;6.25;3.53;;;;;;;22.07;47.49;97152.34;6024203;23;20627;-81
2023/07/04 06:50:59;;;;;;;7.60;4.30;;;;;;;22.25;47.42;97151.16;6050469;23;20025;-80
2023/07/04 06:53:25;;;;;;;4.95;3.42;;;;;;;22.30;47.83;97150.22;5919016;23;20012;-80
2023/07/04 06:55:52;;;;;;;5.82;3.40;;;;;;;22.40;47.18;97155.16;5994406;23;20015;-81
2023/07/04 06:58:17;;;;;;;4.07;2.97;;;;;;;22.42;46.71;97142.34;6050311;23;20027;-80
2023/07/04 07:00:43;;;;;;;5.60;3.15;;;;;;;22.55;46.40;97147.72;6050249;23;20825;-81
2023/07/04 07:03:08;;;;;;;6.05;3.70;;;;;;;22.76;44.50;97145.09;6040298;23;20164;-81
2023/07/04 07:05:40;;;;;;;3.90;3.05;;;;;;;22.84;44.56;97156.72;6016975;23;20395;-81
2023/07/04 07:08:10;;;;;;;6.57;3.55;;;;;;;22.84;44.90;97162.78;6027204;23;20004;-82
2023/07/04 07:10:36;;;;;;;6.70;3.08;;;;;;;22.92;45.93;97147.91;6048861;23;20011;-80
2023/07/04 07:13:05;;;;;;;6.72;3.38;;;;;;;22.93;44.31;97157.44;6015150;23;20015;-81
2023/07/04 07:15:31;;;;;;;13.00;4.95;;;;;;;23.15;44.07;97156.31;6051870;23;20062;-81
2023/07/04 07:17:56;;;;;;;5.10;3.00;;;;;;;23.26;44.00;97164.69;6041621;23;20292;-80
2023/07/04 07:20:22;;;;;;;5.80;3.47;;;;;;;23.45;43.69;97153.53;6051503;23;19999;-80
2023/07/04 07:22:47;;;;;;;5.35;3.55;;;;;;;23.54;43.41;97156.88;5994130;23;20004;-81
2023/07/04 07:25:13;;;;;;;5.38;2.85;;;;;;;23.75;41.93;97162.09;6028320;23;20218;-80
2023/07/04 07:27:42;;;;;;;5.63;3.00;;;;;;;23.72;41.39;97160.91;6052133;23;20003;-79
2023/07/04 07:30:08;;;;;;;4.25;2.88;;;;;;;23.72;41.01;97165.44;6029316;23;20007;-81
2023/07/04 07:32:33;;;;;;;4.88;2.90;;;;;;;23.60;40.31;97160.88;6017987;23;20011;-80
2023/07/04 07:34:59;;;;;;;6.22;2.80;;;;;;;23.63;39.79;97168.19;6051410;23;20575;-80
2023/07/04 07:37:24;;;;;;;5.70;3.03;;;;;;;23.55;41.25;97175.16;6016694;23;20390;-80
2023/07/04 07:39:51;;;;;;;4.82;3.03;;;;;;;23.70;40.67;97170.28;6027813;23;20004;-81
2023/07/04 07:42:16;;;;;;;3.63;3.13;;;;;;;23.73;41.01;97166.97;6050630;23;20070;-80
2023/07/04 07:44:42;;;;;;;5.25;2.95;;;;;;;23.71;40.95;97167.31;6017784;23;20787;-80
2023/07/04 07:47:10;;;;;;;4.13;2.80;;;;;;;24.03;39.80;97167.59;6046873;23;20639;-81
2023/07/04 07:49:37;;;;;;;5.00;3.10;;;;;;;23.99;41.53;97166.72;5995348;23;20003;-80
2023/07/04 07:52:03;;;;;;;5.60;2.80;;;;;;;24.23;39.57;97159.81;6017149;23;20081;-79
2023/07/04 07:54:28;;;;;;;3.92;2.72;;;;;;;24.38;39.11;97167.13;5920632;23;20038;-81
2023/07/04 07:56:54;;;;;;;5.35;2.70;;;;;;;24.34;38.91;97165.47;5954989;23;20375;-79
2023/07/04 07:59:21;;;;;;;4.95;2.80;;;;;;;24.20;39.05;97165.84;6051119;23;20014;-80
2023/07/04 08:01:46;;;;;;;5.20;3.05;;;;;;;24.30;38.08;97160.81;5991597;23;20011;-80
2023/07/04 08:04:12;;;;;;;5.55;3.08;;;;;;;24.48;37.79;97165.91;6050548;23;20078;-80
2023/07/04 08:06:40;;;;;;;3.28;2.80;;;;;;;24.40;40.94;97164.13;6051888;23;20565;-80
2023/07/04 08:09:08;;;;;;;3.63;3.33;;;;;;;24.32;39.79;97168.47;6019267;23;20015;-79
2023/07/04 08:11:34;;;;;;;3.38;3.00;;;;;;;24.49;39.19;97167.47;6049653;23;20003;-80
2023/07/04 08:14:00;;;;;;;6.10;3.22;;;;;;;24.56;38.08;97172.25;5992565;23;20830;-81
2023/07/04 08:16:41;;;;;;;4.60;3.40;;;;;;;24.52;39.83;97166.00;6026237;23;20734;-80
2023/07/04 08:19:06;;;;;;;3.38;2.58;;;;;;;24.43;40.18;97169.56;6017699;23;20003;-80
2023/07/04 08:21:32;;;;;;;5.35;2.90;;;;;;;24.66;38.46;97172.56;6016222;23;20971;-81
2023/07/04 08:23:58;;;;;;;4.07;2.50;;;;;;;24.67;38.42;97168.00;5992386;23;20042;-80
2023/07/04 08:26:25;;;;;;;4.72;2.95;;;;;;;24.48;37.02;97163.22;6016897;23;20053;-80
2023/07/04 08:28:55;;;;;;;3.63;2.50;;;;;;;24.51;37.01;97172.44;6017710;23;20007;-80
2023/07/04 08:31:21;;;;;;;3.83;2.60;;;;;;;24.35;39.20;97175.78;6049132;23;20219;-80
2023/07/04 08:33:47;;;;;;;5.07;2.80;;;;;;;24.50;38.04;97158.34;6015660;23;20690;-80
2023/07/04 08:36:13;;;;;;;3.53;2.80;;;;;;;24.67;37.91;97158.09;5991303;23;20011;-81
2023/07/04 08:38:38;;;;;;;6.32;2.85;;;;;;;24.85;36.65;97161.28;6026112;23;20003;-80
2023/07/04 08:41:31;;;;;;;2.95;2.33;;;;;;;25.07;36.10;97159.22;5917141;23;20089;-80
2023/07/04 08:44:18;;;;;;;5.68;3.17;;;;;;;25.12;36.71;97169.63;6013685;23;20003;-80
2023/07/04 08:46:46;;;;;;;3.95;2.47;;;;;;;25.03;37.15;97166.31;5926098;23;20030;-81
2023/07/04 08:49:21;;;;;;;4.40;3.05;;;;;;;24.78;36.83;97162.97;6048154;23;20015;-79
2023/07/04 08:51:58;;;;;;;7.32;2.80;;;;;;;25.31;36.69;97169.03;5949597;23;20004;-79
2023/07/04 08:54:24;;;;;;;3.25;2.95;;;;;;;25.58;35.90;97158.63;5991877;23;20017;-80
2023/07/04 08:56:50;;;;;;;4.68;2.65;;;;;;;25.75;34.02;97146.84;6039952;23;20011;-80
2023/07/04 08:59:29;;;;;;;4.43;2.55;;;;;;;25.36;35.47;97151.97;5989391;23;20701;-80
2023/07/04 09:02:00;;;;;;;3.38;2.60;;;;;;;25.70;32.41;97160.44;5917542;23;20094;-81
2023/07/04 09:04:36;;;;;;;3.78;2.67;;;;;;;25.91;32.48;97168.97;5913310;23;20103;-80
2023/07/04 09:07:22;;;;;;;3.05;2.75;;;;;;;26.05;31.30;97167.81;6013966;23;20015;-80
2023/07/04 09:10:10;;;;;;;4.22;2.40;;;;;;;26.13;31.55;97172.16;6039706;23;20015;-79
2023/07/04 09:12:36;;;;;;;2.63;2.20;;;;;;;26.15;31.67;97162.69;6040501;23;20008;-80
2023/07/04 09:15:17;;;;;;;3.40;2.38;;;;;;;26.32;29.71;97158.88;6015262;23;20003;-80
2023/07/04 09:17:48;;;;;;;3.70;2.58;;;;;;;26.41;29.56;97171.25;6038783;23;20058;-81
2023/07/04 09:20:14;;;;;;;2.65;2.45;;;;;;;26.45;29.86;97162.19;5952150;23;20010;-80
2023/07/04 09:22:39;;;;;;;3.78;3.00;;;;;;;26.50;29.74;97166.50;6038586;23;20687;-81
2023/07/04 09:25:07;;;;;;;4.18;2.90;;;;;;;26.64;29.48;97169.50;6014854;23;20422;-80
2023/07/04 09:27:33;;;;;;;2.97;2.33;;;;;;;26.85;29.34;97168.38;6015931;23;20031;-79
2023/07/04 09:29:59;;;;;;;3.08;2.60;;;;;;;27.21;29.50;97174.41;5990729;23;20012;-79
2023/07/04 09:32:24;;;;;;;4.13;2.72;;;;;;;27.42;29.52;97172.16;6012527;23;20007;-79
2023/07/04 09:35:02;;;;;;;4.78;2.97;;;;;;;27.64;29.41;97164.50;6023395;23;20363;-80
2023/07/04 09:37:28;;;;;;;5.03;2.80;;;;;;;27.79;29.08;97163.59;6047809;23;20083;-80
2023/07/04 09:39:55;;;;;;;3.83;3.28;;;;;;;27.61;29.12;97163.31;5989786;23;20039;-80
2023/07/04 09:42:24;;;;;;;3.15;2.83;;;;;;;27.96;27.21;97161.59;6024308;23;20035;-81
2023/07/04 09:44:53;;;;;;;3.50;2.88;;;;;;;27.79;28.41;97166.28;5990525;23;20022;-79
2023/07/04 09:47:22;;;;;;;4.40;3.17;;;;;;;27.77;28.59;97171.22;5990397;23;20095;-80
2023/07/04 09:50:10;;;;;;;4.25;3.33;;;;;;;27.81;27.95;97173.94;6015500;23;20015;-81
2023/07/04 09:52:36;;;;;;;3.20;2.90;;;;;;;27.86;27.53;97167.53;6046337;23;20008;-80
2023/07/04 09:55:14;;;;;;;4.60;3.00;;;;;;;27.93;29.01;97167.66;6022070;23;20525;-80
2023/07/04 09:57:40;;;;;;;3.67;3.05;;;;;;;27.89;27.97;97162.22;6025499;23;20003;-80
2023/07/04 10:00:19;;;;;;;3.80;3.08;;;;;;;28.02;27.23;97154.81;5915976;23;20014;-79
2023/07/04 10:02:46;;;;;;;4.05;3.03;;;;;;;27.62;28.33;97162.19;5990848;23;20007;-80
2023/07/04 10:05:23;;;;;;;3.10;2.80;;;;;;;28.24;27.86;97155.13;6016281;23;20026;-80
2023/07/04 10:08:11;;;;;;;3.72;3.17;;;;;;;28.20;28.22;97161.19;6048471;23;20014;-79
2023/07/04 10:10:50;;;;;;;4.63;3.53;;;;;;;28.39;28.13;97151.50;6050996;23;20003;-79
2023/07/04 10:13:18;;;;;;;5.70;3.15;;;;;;;28.49;28.63;97156.22;5992576;23;20695;-80
2023/07/04 10:15:45;;;;;;;3.47;2.75;;;;;;;28.80;26.94;97154.34;5993984;23;20031;-81
2023/07/04 10:18:27;;;;;;;3.28;2.72;;;;;;;29.13;26.42;97148.22;6028233;23;20007;-81
2023/07/04 10:20:55;;;;;;;2.85;2.58;;;;;;;29.04;26.56;97157.69;5952920;23;20023;-81
2023/07/04 10:23:26;;;;;;;3.83;3.25;;;;;;;29.20;25.89;97158.28;5992800;23;20055;-80
2023/07/04 10:26:01;;;;;;;4.85;3.30;;;;;;;29.21;28.27;97159.78;5917646;23;20008;-80
2023/07/04 10:28:27;;;;;;;3.90;3.08;;;;;;;29.31;27.10;97129.63;5991467;23;20003;-80
2023/07/04 10:31:06;;;;;;;5.55;3.50;;;;;;;29.72;26.63;97152.97;5917556;23;20053;-81
2023/07/04 10:34:04;;;;;;;4.85;3.15;;;;;;;29.66;25.96;97157.13;6048970;23;20004;-81
2023/07/04 10:36:33;;;;;;;4.75;3.33;;;;;;;29.33;25.38;97153.41;5961054;23;20011;-82
2023/07/04 10:39:05;;;;;;;3.67;2.97;;;;;;;28.86;25.18;97150.22;5917109;23;20012;-82
2023/07/04 10:42:03;;;;;;;4.57;3.20;;;;;;;28.76;27.83;97146.25;6015360;23;20074;-79
2023/07/04 10:44:30;;;;;;;6.85;3.60;;;;;;;29.08;27.04;97145.06;6014221;23;20128;-80
2023/07/04 10:46:59;;;;;;;4.65;3.72;;;;;;;29.13;25.43;97142.06;5991785;23;20015;-81
2023/07/04 10:49:33;;;;;;;4.18;3.63;;;;;;;28.66;26.88;97135.41;6047558;23;20755;-79
2023/07/04 10:52:09;;;;;;;5.00;3.15;;;;;;;28.27;27.10;97143.69;6023212;23;20003;-80
2023/07/04 10:54:35;;;;;;;3.90;2.97;;;;;;;27.79;28.24;97139.50;5926479;23;20186;-81
2023/07/04 10:57:08;;;;;;;3.78;3.20;;;;;;;27.61;28.66;97131.22;6039528;23;20377;-81
2023/07/04 10:59:37;;;;;;;5.70;4.03;;;;;;;27.30;29.81;97126.88;6040006;23;20010;-80
2023/07/04 11:02:26;;;;;;;4.88;3.30;;;;;;;27.39;29.45;97140.00;5990437;23;20019;-80
2023/07/04 11:04:56;;;;;;;4.60;2.97;;;;;;;27.33;29.54;97133.41;5941203;23;20007;-80
2023/07/04 11:07:23;;;;;;;3.53;3.08;;;;;;;27.17;30.09;97120.13;5990898;23;20007;-81
2023/07/04 11:09:53;;;;;;;4.78;3.92;;;;;;;27.30;30.18;97131.44;5926174;23;20019;-80
2023/07/04 11:12:19;;;;;;;7.60;3.53;;;;;;;27.44;30.59;97126.34;5990857;23;20011;-80
2023/07/04 11:14:47;;;;;;;3.47;3.05;;;;;;;27.60;30.17;97128.91;6024945;23;20083;-79
2023/07/04 11:17:16;;;;;;;4.55;3.45;;;;;;;27.45;29.73;97127.88;5926624;23;20003;-78
2023/07/04 11:20:06;;;;;;;3.75;3.33;;;;;;;28.04;28.97;97128.47;5991122;23;20017;-80
2023/07/04 11:22:50;;;;;;;4.55;2.92;;;;;;;28.36;28.74;97131.59;6043860;23;20368;-80
2023/07/04 11:25:42;;;;;;;3.40;3.05;;;;;;;28.60;29.21;97129.63;5949825;23;20011;-80
2023/07/04 11:28:35;;;;;;;4.47;3.10;;;;;;;28.72;29.20;97121.34;5995555;23;20007;-81
2023/07/04 11:31:13;;;;;;;4.28;3.30;;;;;;;28.79;28.55;97119.88;5951597;23;20007;-80
2023/07/04 11:33:44;;;;;;;5.50;3.53;;;;;;;28.76;27.92;97132.88;6025723;23;20150;-79
2023/07/04 11:36:23;;;;;;;3.95;3.58;;;;;;;28.56;29.38;97128.78;6025796;23;20006;-80
2023/07/04 11:38:52;;;;;;;4.57;3.30;;;;;;;28.34;28.12;97127.72;6014579;23;20102;-80
2023/07/04 11:41:43;;;;;;;4.47;3.20;;;;;;;28.43;28.43;97124.75;6015085;23;20011;-80
2023/07/04 11:44:20;;;;;;;5.00;3.63;;;;;;;28.29;28.62;97122.66;6022540;23;20010;-80